createdAt,value
2017-06-17T00:00:10.106Z,17.54
2017-06-17T00:00:38.334Z,17.53
2017-06-17T00:01:06.477Z,17.47
2017-06-17T00:01:34.698Z,17.41
2017-06-17T00:02:02.828Z,17.5
2017-06-17T00:02:31.046Z,17.43
2017-06-17T00:02:59.202Z,17.47
2017-06-17T00:03:27.343Z,17.41
2017-06-17T00:03:55.569Z,17.43
2017-06-17T00:05:06.745Z,17.35
2017-06-17T00:05:34.873Z,17.34
2017-06-17T00:06:03.025Z,17.46
2017-06-17T00:06:31.254Z,17.37
2017-06-17T00:06:59.480Z,17.43
2017-06-17T00:07:27.699Z,17.34
2017-06-17T00:07:55.838Z,17.41
2017-06-17T00:08:24.059Z,17.37
2017-06-17T00:08:52.221Z,17.38
2017-06-17T00:09:20.450Z,17.39
2017-06-17T00:09:48.677Z,17.38
2017-06-17T00:10:59.857Z,17.39
2017-06-17T00:11:28.073Z,17.38
2017-06-17T00:11:56.225Z,17.35
2017-06-17T00:12:24.347Z,17.32
2017-06-17T00:12:52.486Z,17.35
2017-06-17T00:13:20.706Z,17.37
2017-06-17T00:13:48.832Z,17.39
2017-06-17T00:14:17.056Z,17.34
2017-06-17T00:14:45.303Z,17.34
2017-06-17T00:15:13.528Z,17.32
2017-06-17T00:15:41.566Z,17.39
2017-06-17T00:16:52.658Z,17.32
2017-06-17T00:17:20.791Z,17.37
2017-06-17T00:17:49.037Z,17.32
2017-06-17T00:18:17.258Z,17.28
2017-06-17T00:18:45.304Z,17.34
2017-06-17T00:19:13.530Z,17.35
2017-06-17T00:19:41.758Z,17.28
2017-06-17T00:20:09.980Z,17.32
2017-06-17T00:20:38.139Z,17.35
2017-06-17T00:21:06.372Z,17.31
2017-06-17T00:21:34.603Z,17.32
2017-06-17T00:22:45.877Z,17.3
2017-06-17T00:23:14.105Z,17.3
2017-06-17T00:23:42.270Z,17.3
2017-06-17T00:24:10.403Z,17.34
2017-06-17T00:24:38.539Z,17.35
2017-06-17T00:25:06.756Z,17.28
2017-06-17T00:25:34.989Z,17.32
2017-06-17T00:26:03.210Z,17.27
2017-06-17T00:26:31.276Z,17.3
2017-06-17T00:26:59.511Z,17.27
2017-06-17T00:27:27.638Z,17.25
2017-06-17T00:28:38.910Z,17.3
2017-06-17T00:29:07.133Z,17.22
2017-06-17T00:29:35.378Z,17.27
2017-06-17T00:30:03.606Z,17.22
2017-06-17T00:30:31.839Z,17.22
2017-06-17T00:31:00.063Z,17.2
2017-06-17T00:31:28.098Z,17.22
2017-06-17T00:31:56.320Z,17.19
2017-06-17T00:32:24.475Z,17.14
2017-06-17T00:32:52.609Z,17.16
2017-06-17T00:33:20.745Z,17.17
2017-06-17T00:34:32.008Z,17.16
2017-06-17T00:35:00.234Z,17.17
2017-06-17T00:35:28.387Z,17.17
2017-06-17T00:35:56.612Z,17.2
2017-06-17T00:36:24.844Z,17.28
2017-06-17T00:36:53.068Z,17.22
2017-06-17T00:37:20.911Z,17.24
2017-06-17T00:37:49.131Z,17.17
2017-06-17T00:38:17.384Z,17.24
2017-06-17T00:38:45.615Z,17.2
2017-06-17T00:39:13.839Z,17.24
2017-06-17T00:40:25.119Z,17.24
2017-06-17T00:40:53.345Z,17.16
2017-06-17T00:41:21.591Z,17.14
2017-06-17T00:41:49.813Z,17.14
2017-06-17T00:42:18.043Z,17.14
2017-06-17T00:42:46.269Z,17.1
2017-06-17T00:43:14.404Z,17.14
2017-06-17T00:43:42.631Z,17.1
2017-06-17T00:44:10.788Z,17.13
2017-06-17T00:44:39.019Z,17.04
2017-06-17T00:45:07.144Z,17.12
2017-06-17T00:46:18.417Z,17.12
2017-06-17T00:46:46.643Z,17.02
2017-06-17T00:47:14.795Z,17.09
2017-06-17T00:47:43.017Z,17.04
2017-06-17T00:48:11.059Z,17.04
2017-06-17T00:48:39.290Z,17.06
2017-06-17T00:49:07.329Z,17.02
2017-06-17T00:49:35.553Z,16.97
2017-06-17T00:50:03.711Z,17.06
2017-06-17T00:50:32.384Z,17.1
2017-06-17T00:51:00.611Z,17.14
2017-06-17T00:52:11.884Z,16.98
2017-06-17T00:52:40.104Z,17.14
2017-06-17T00:53:08.351Z,17.01
2017-06-17T00:53:36.581Z,16.97
2017-06-17T00:54:04.720Z,16.97
2017-06-17T00:54:32.852Z,17.12
2017-06-17T00:55:00.984Z,17.12
2017-06-17T00:55:29.201Z,17.02
2017-06-17T00:55:57.267Z,16.98
2017-06-17T00:56:25.497Z,16.95
2017-06-17T00:56:53.722Z,16.97
2017-06-17T00:58:04.806Z,17.02
2017-06-17T00:58:33.030Z,16.92
2017-06-17T00:59:01.179Z,17.04
2017-06-17T00:59:29.305Z,17.01
2017-06-17T00:59:57.437Z,16.99
2017-06-17T01:00:25.656Z,16.98
2017-06-17T01:00:53.787Z,17.02
2017-06-17T01:01:21.911Z,16.99
2017-06-17T01:01:50.068Z,16.92
2017-06-17T01:02:18.291Z,16.95
2017-06-17T01:02:46.422Z,17.02
2017-06-17T01:03:57.698Z,17.02
2017-06-17T01:04:25.921Z,16.84
2017-06-17T01:04:54.167Z,16.88
2017-06-17T01:05:22.394Z,16.92
2017-06-17T01:05:50.526Z,16.87
2017-06-17T01:06:18.746Z,16.94
2017-06-17T01:06:46.880Z,16.87
2017-06-17T01:07:15.102Z,16.95
2017-06-17T01:07:43.258Z,16.98
2017-06-17T01:08:11.486Z,16.95
2017-06-17T01:08:39.719Z,16.84
2017-06-17T01:09:50.988Z,16.9
2017-06-17T01:10:19.209Z,16.94
2017-06-17T01:10:47.353Z,16.91
2017-06-17T01:11:15.569Z,16.97
2017-06-17T01:11:43.705Z,16.92
2017-06-17T01:12:11.926Z,16.97
2017-06-17T01:12:40.150Z,16.95
2017-06-17T01:13:08.378Z,16.91
2017-06-17T01:13:36.540Z,16.97
2017-06-17T01:14:04.772Z,16.94
2017-06-17T01:14:32.996Z,16.92
2017-06-17T01:15:44.273Z,16.87
2017-06-17T01:16:12.495Z,16.92
2017-06-17T01:16:40.663Z,16.87
2017-06-17T01:17:08.770Z,16.91
2017-06-17T01:17:36.999Z,16.92
2017-06-17T01:18:05.228Z,16.84
2017-06-17T01:18:33.362Z,16.87
2017-06-17T01:19:01.583Z,16.87
2017-06-17T01:19:29.555Z,16.83
2017-06-17T01:19:57.689Z,16.91
2017-06-17T01:20:25.727Z,16.87
2017-06-17T01:21:36.998Z,16.82
2017-06-17T01:22:05.216Z,16.74
2017-06-17T01:22:33.462Z,16.74
2017-06-17T01:23:01.594Z,16.74
2017-06-17T01:23:29.824Z,16.79
2017-06-17T01:23:57.857Z,16.79
2017-06-17T01:24:26.078Z,16.74
2017-06-17T01:24:54.302Z,16.82
2017-06-17T01:25:22.459Z,16.77
2017-06-17T01:25:50.591Z,16.76
2017-06-17T01:26:18.718Z,16.79
2017-06-17T01:27:29.989Z,16.77
2017-06-17T01:27:58.115Z,16.83
2017-06-17T01:28:26.356Z,16.7
2017-06-17T01:28:54.569Z,16.76
2017-06-17T01:29:22.612Z,16.74
2017-06-17T01:29:50.838Z,16.73
2017-06-17T01:30:19.072Z,16.74
2017-06-17T01:30:47.300Z,16.82
2017-06-17T01:31:15.551Z,16.79
2017-06-17T01:31:43.779Z,16.83
2017-06-17T01:32:12.008Z,16.72
2017-06-17T01:33:23.276Z,16.7
2017-06-17T01:33:51.508Z,16.76
2017-06-17T01:34:19.658Z,16.8
2017-06-17T01:34:47.896Z,16.7
2017-06-17T01:35:16.061Z,16.72
2017-06-17T01:35:50.569Z,16.74
2017-06-17T01:36:18.683Z,16.7
2017-06-17T01:36:46.758Z,16.67
2017-06-17T01:37:14.951Z,16.73
2017-06-17T01:37:43.222Z,16.7
2017-06-17T01:38:11.479Z,16.69
2017-06-17T01:39:22.627Z,16.76
2017-06-17T01:39:50.832Z,16.84
2017-06-17T01:40:18.970Z,16.77
2017-06-17T01:40:47.126Z,16.87
2017-06-17T01:41:15.338Z,16.9
2017-06-17T01:41:43.596Z,16.88
2017-06-17T01:42:11.756Z,16.92
2017-06-17T01:42:40.018Z,16.84
2017-06-17T01:43:08.308Z,16.83
2017-06-17T01:43:36.579Z,16.84
2017-06-17T01:44:04.846Z,16.84
2017-06-17T01:45:16.068Z,16.84
2017-06-17T01:45:44.054Z,16.74
2017-06-17T01:46:12.247Z,16.73
2017-06-17T01:46:40.512Z,16.82
2017-06-17T01:47:08.784Z,16.74
2017-06-17T01:47:36.953Z,16.84
2017-06-17T01:48:05.029Z,16.77
2017-06-17T01:48:33.203Z,16.8
2017-06-17T01:49:01.500Z,16.8
2017-06-17T01:49:29.578Z,16.84
2017-06-17T01:49:57.842Z,16.77
2017-06-17T01:51:09.067Z,16.87
2017-06-17T01:51:37.244Z,16.79
2017-06-17T01:52:05.525Z,16.79
2017-06-17T01:52:33.694Z,16.8
2017-06-17T01:53:01.874Z,16.8
2017-06-17T01:53:30.159Z,16.76
2017-06-17T01:53:58.314Z,16.74
2017-06-17T01:54:26.481Z,16.76
2017-06-17T01:54:54.777Z,16.74
2017-06-17T01:55:22.950Z,16.7
2017-06-17T01:55:50.933Z,16.79
2017-06-17T01:57:02.154Z,16.8
2017-06-17T01:57:30.232Z,16.74
2017-06-17T01:57:58.515Z,16.73
2017-06-17T01:58:26.587Z,16.72
2017-06-17T01:58:54.670Z,16.7
2017-06-17T01:59:22.837Z,16.73
2017-06-17T01:59:50.916Z,16.7
2017-06-17T02:00:19.092Z,16.73
2017-06-17T02:00:47.388Z,16.69
2017-06-17T02:01:15.563Z,16.72
2017-06-17T02:01:43.640Z,16.7
2017-06-17T02:02:54.954Z,16.69
2017-06-17T02:03:23.036Z,16.72
2017-06-17T02:03:51.224Z,16.69
2017-06-17T02:04:19.108Z,16.67
2017-06-17T02:04:47.292Z,16.69
2017-06-17T02:05:15.371Z,16.65
2017-06-17T02:05:43.544Z,16.69
2017-06-17T02:06:11.814Z,16.67
2017-06-17T02:06:40.015Z,16.67
2017-06-17T02:07:08.281Z,16.67
2017-06-17T02:07:36.356Z,16.64
2017-06-17T02:08:47.574Z,16.52
2017-06-17T02:09:15.839Z,16.57
2017-06-17T02:09:44.126Z,16.62
2017-06-17T02:10:12.387Z,16.58
2017-06-17T02:10:40.659Z,16.55
2017-06-17T02:11:08.832Z,16.51
2017-06-17T02:11:37.006Z,16.61
2017-06-17T02:12:05.179Z,16.55
2017-06-17T02:12:33.466Z,16.59
2017-06-17T02:13:01.544Z,16.61
2017-06-17T02:13:29.620Z,16.54
2017-06-17T02:14:40.841Z,16.47
2017-06-17T02:15:08.925Z,16.54
2017-06-17T02:15:37.119Z,16.43
2017-06-17T02:16:05.385Z,16.42
2017-06-17T02:16:33.646Z,16.51
2017-06-17T02:17:01.820Z,16.44
2017-06-17T02:17:29.898Z,16.49
2017-06-17T02:17:58.063Z,16.49
2017-06-17T02:18:26.257Z,16.46
2017-06-17T02:18:54.340Z,16.44
2017-06-17T02:19:22.512Z,16.46
2017-06-17T02:20:33.736Z,16.46
2017-06-17T02:21:01.734Z,16.47
2017-06-17T02:21:30.015Z,16.44
2017-06-17T02:21:58.278Z,16.4
2017-06-17T02:22:26.547Z,16.47
2017-06-17T02:22:54.624Z,16.43
2017-06-17T02:23:22.702Z,16.47
2017-06-17T02:23:50.778Z,16.43
2017-06-17T02:24:18.976Z,16.36
2017-06-17T02:24:47.058Z,16.43
2017-06-17T02:25:15.141Z,16.44
2017-06-17T02:26:26.276Z,16.47
2017-06-17T02:26:54.544Z,16.39
2017-06-17T02:27:22.739Z,16.43
2017-06-17T02:27:50.908Z,16.32
2017-06-17T02:28:19.187Z,16.26
2017-06-17T02:28:47.265Z,16.33
2017-06-17T02:29:15.448Z,16.36
2017-06-17T02:29:43.618Z,16.37
2017-06-17T02:30:11.912Z,16.33
2017-06-17T02:30:40.183Z,16.32
2017-06-17T02:31:08.366Z,16.36
2017-06-17T02:32:19.582Z,16.32
2017-06-17T02:32:47.665Z,16.32
2017-06-17T02:33:15.859Z,16.34
2017-06-17T02:33:44.121Z,16.37
2017-06-17T02:34:12.391Z,16.32
2017-06-17T02:34:40.468Z,16.36
2017-06-17T02:35:08.640Z,16.36
2017-06-17T02:35:36.714Z,16.33
2017-06-17T02:36:04.917Z,16.32
2017-06-17T02:36:33.189Z,16.37
2017-06-17T02:37:01.460Z,16.34
2017-06-17T02:38:12.679Z,16.39
2017-06-17T02:38:40.952Z,16.39
2017-06-17T02:39:09.053Z,16.36
2017-06-17T02:39:37.317Z,16.32
2017-06-17T02:40:05.594Z,16.36
2017-06-17T02:40:33.852Z,16.42
2017-06-17T02:41:02.121Z,16.39
2017-06-17T02:41:30.009Z,16.34
2017-06-17T02:41:58.304Z,16.39
2017-06-17T02:42:26.578Z,16.34
2017-06-17T02:42:54.655Z,16.36
2017-06-17T02:44:05.968Z,16.34
2017-06-17T02:44:34.237Z,16.26
2017-06-17T02:45:02.429Z,16.29
2017-06-17T02:45:30.689Z,16.26
2017-06-17T02:45:58.870Z,16.29
2017-06-17T02:46:27.044Z,16.34
2017-06-17T02:46:55.220Z,16.26
2017-06-17T02:47:23.388Z,16.26
2017-06-17T02:47:51.684Z,16.26
2017-06-17T02:48:19.772Z,16.25
2017-06-17T02:48:47.945Z,16.25
2017-06-17T02:49:59.162Z,16.18
2017-06-17T02:50:27.333Z,16.29
2017-06-17T02:50:55.527Z,16.22
2017-06-17T02:51:23.793Z,16.18
2017-06-17T02:51:51.965Z,16.25
2017-06-17T02:52:20.136Z,16.17
2017-06-17T02:52:48.307Z,16.29
2017-06-17T02:53:16.476Z,16.26
2017-06-17T02:53:44.765Z,16.17
2017-06-17T02:54:12.942Z,16.18
2017-06-17T02:54:41.211Z,16.18
2017-06-17T02:55:52.527Z,16.18
2017-06-17T02:56:20.699Z,16.18
2017-06-17T02:56:48.605Z,16.29
2017-06-17T02:57:16.680Z,16.26
2017-06-17T02:57:44.949Z,16.21
2017-06-17T02:58:13.119Z,16.17
2017-06-17T02:58:41.382Z,16.17
2017-06-17T02:59:09.550Z,16.17
2017-06-17T02:59:37.838Z,16.22
2017-06-17T03:00:05.917Z,16.14
2017-06-17T03:00:34.091Z,16.17
2017-06-17T03:01:45.311Z,16.14
2017-06-17T03:02:13.482Z,16.14
2017-06-17T03:02:41.674Z,16.09
2017-06-17T03:03:09.751Z,16.25
2017-06-17T03:03:38.023Z,16.22
2017-06-17T03:04:06.191Z,16.17
2017-06-17T03:04:34.456Z,16.06
2017-06-17T03:05:02.529Z,16.17
2017-06-17T03:05:30.725Z,16.17
2017-06-17T03:05:58.805Z,16.05
2017-06-17T03:06:26.974Z,16.18
2017-06-17T03:07:38.191Z,16.18
2017-06-17T03:08:06.266Z,16.21
2017-06-17T03:08:34.458Z,16.02
2017-06-17T03:09:02.633Z,16.16
2017-06-17T03:09:30.906Z,16.1
2017-06-17T03:09:59.169Z,16.14
2017-06-17T03:10:27.437Z,16.21
2017-06-17T03:10:55.706Z,16.17
2017-06-17T03:11:23.991Z,16.17
2017-06-17T03:11:52.167Z,16.1
2017-06-17T03:12:20.247Z,16.13
2017-06-17T03:13:31.375Z,16.16
2017-06-17T03:13:59.454Z,16.14
2017-06-17T03:14:27.739Z,16.09
2017-06-17T03:14:56.003Z,16.13
2017-06-17T03:15:23.895Z,16.16
2017-06-17T03:15:52.066Z,16.14
2017-06-17T03:16:20.333Z,16.14
2017-06-17T03:16:48.590Z,16.13
2017-06-17T03:17:16.883Z,16.14
2017-06-17T03:17:45.060Z,16.13
2017-06-17T03:18:13.233Z,16.16
2017-06-17T03:19:24.361Z,16.13
2017-06-17T03:19:52.536Z,16.17
2017-06-17T03:20:20.628Z,16.16
2017-06-17T03:20:48.703Z,16.16
2017-06-17T03:21:16.885Z,16.06
2017-06-17T03:21:44.965Z,16.1
2017-06-17T03:22:13.230Z,16.1
2017-06-17T03:22:41.310Z,16.16
2017-06-17T03:23:09.415Z,16.09
2017-06-17T03:23:37.591Z,16.09
2017-06-17T03:24:05.767Z,16.21
2017-06-17T03:25:17.084Z,16.13
2017-06-17T03:25:45.352Z,16.14
2017-06-17T03:26:13.640Z,16.14
2017-06-17T03:26:41.908Z,16.14
2017-06-17T03:27:10.086Z,16.14
2017-06-17T03:27:38.349Z,16.09
2017-06-17T03:28:06.614Z,16.09
2017-06-17T03:28:34.875Z,16.09
2017-06-17T03:29:03.070Z,16.09
2017-06-17T03:29:31.247Z,16.02
2017-06-17T03:29:59.517Z,16.06
2017-06-17T03:31:10.831Z,16.06
2017-06-17T03:31:39.096Z,16.02
2017-06-17T03:32:07.381Z,16.03
2017-06-17T03:32:35.455Z,16.02
2017-06-17T03:33:03.353Z,16.06
2017-06-17T03:33:31.618Z,15.99
2017-06-17T03:33:59.796Z,16.03
2017-06-17T03:34:27.963Z,15.96
2017-06-17T03:34:56.157Z,16.02
2017-06-17T03:35:24.334Z,15.98
2017-06-17T03:35:52.594Z,15.98
2017-06-17T03:37:03.722Z,15.96
2017-06-17T03:37:31.988Z,15.99
2017-06-17T03:38:00.271Z,16
2017-06-17T03:38:28.352Z,15.93
2017-06-17T03:38:56.442Z,15.99
2017-06-17T03:39:24.617Z,15.93
2017-06-17T03:39:52.785Z,16
2017-06-17T03:40:20.954Z,15.99
2017-06-17T03:40:49.153Z,15.98
2017-06-17T03:41:17.332Z,15.96
2017-06-17T03:41:45.503Z,15.95
2017-06-17T03:42:56.631Z,16
2017-06-17T03:43:24.802Z,15.96
2017-06-17T03:43:52.998Z,15.9
2017-06-17T03:44:21.075Z,15.85
2017-06-17T03:44:49.163Z,15.98
2017-06-17T03:45:17.430Z,15.93
2017-06-17T03:45:45.606Z,15.95
2017-06-17T03:46:13.778Z,15.88
2017-06-17T03:46:41.887Z,15.87
2017-06-17T03:47:10.064Z,15.96
2017-06-17T03:47:38.329Z,15.93
2017-06-17T03:48:49.648Z,15.88
2017-06-17T03:49:17.919Z,15.95
2017-06-17T03:49:46.108Z,15.95
2017-06-17T03:50:14.377Z,15.9
2017-06-17T03:50:42.273Z,15.9
2017-06-17T03:51:10.443Z,15.93
2017-06-17T03:51:38.619Z,15.91
2017-06-17T03:52:06.793Z,15.87
2017-06-17T03:52:34.898Z,15.9
2017-06-17T03:53:03.168Z,15.88
2017-06-17T03:53:31.346Z,15.88
2017-06-17T03:54:42.660Z,15.84
2017-06-17T03:55:10.834Z,15.81
2017-06-17T03:55:39.034Z,15.84
2017-06-17T03:56:07.295Z,15.85
2017-06-17T03:56:35.473Z,15.81
2017-06-17T03:57:03.549Z,15.83
2017-06-17T03:57:31.728Z,15.83
2017-06-17T03:57:59.988Z,15.84
2017-06-17T03:58:28.001Z,15.8
2017-06-17T03:58:56.270Z,15.83
2017-06-17T03:59:24.445Z,15.85
2017-06-17T04:00:35.760Z,15.9
2017-06-17T04:01:04.027Z,15.85
2017-06-17T04:01:32.312Z,15.88
2017-06-17T04:02:00.396Z,15.84
2017-06-17T04:02:28.574Z,15.81
2017-06-17T04:02:56.653Z,15.78
2017-06-17T04:03:24.829Z,15.78
2017-06-17T04:03:53.093Z,15.78
2017-06-17T04:04:21.292Z,15.78
2017-06-17T04:04:49.560Z,15.8
2017-06-17T04:05:17.731Z,15.84
2017-06-17T04:06:29.058Z,15.8
2017-06-17T04:06:57.309Z,15.8
2017-06-17T04:07:25.592Z,15.77
2017-06-17T04:07:53.675Z,15.81
2017-06-17T04:08:21.854Z,15.83
2017-06-17T04:08:49.936Z,15.77
2017-06-17T04:09:18.204Z,15.78
2017-06-17T04:09:46.462Z,15.76
2017-06-17T04:10:14.667Z,15.76
2017-06-17T04:10:42.748Z,15.76
2017-06-17T04:11:10.922Z,15.77
2017-06-17T04:12:22.147Z,15.8
2017-06-17T04:12:50.230Z,15.77
2017-06-17T04:13:18.512Z,15.83
2017-06-17T04:13:46.584Z,15.7
2017-06-17T04:14:14.763Z,15.81
2017-06-17T04:14:42.934Z,15.76
2017-06-17T04:15:11.108Z,15.78
2017-06-17T04:15:39.272Z,15.72
2017-06-17T04:16:07.471Z,15.72
2017-06-17T04:16:35.739Z,15.76
2017-06-17T04:17:03.909Z,15.73
2017-06-17T04:18:15.035Z,15.76
2017-06-17T04:18:43.210Z,15.69
2017-06-17T04:19:11.498Z,15.68
2017-06-17T04:19:39.576Z,15.7
2017-06-17T04:20:07.657Z,15.69
2017-06-17T04:20:35.927Z,15.68
2017-06-17T04:21:04.007Z,15.7
2017-06-17T04:21:32.179Z,15.65
2017-06-17T04:22:00.471Z,15.66
2017-06-17T04:22:28.742Z,15.65
2017-06-17T04:22:57.008Z,15.69
2017-06-17T04:24:08.320Z,15.69
2017-06-17T04:24:36.495Z,15.7
2017-06-17T04:25:04.590Z,15.63
2017-06-17T04:25:32.850Z,15.63
2017-06-17T04:26:01.025Z,15.68
2017-06-17T04:26:29.005Z,15.58
2017-06-17T04:26:57.183Z,15.63
2017-06-17T04:27:25.253Z,15.62
2017-06-17T04:27:53.450Z,15.65
2017-06-17T04:28:21.721Z,15.63
2017-06-17T04:28:49.993Z,15.65
2017-06-17T04:30:01.214Z,15.69
2017-06-17T04:30:29.293Z,15.66
2017-06-17T04:30:57.292Z,15.58
2017-06-17T04:31:25.560Z,15.66
2017-06-17T04:31:53.736Z,15.68
2017-06-17T04:32:21.907Z,15.66
2017-06-17T04:32:50.174Z,15.69
2017-06-17T04:33:18.431Z,15.68
2017-06-17T04:33:46.721Z,15.68
2017-06-17T04:34:14.992Z,15.7
2017-06-17T04:34:43.261Z,15.65
2017-06-17T04:35:54.480Z,15.65
2017-06-17T04:36:22.746Z,15.63
2017-06-17T04:36:50.940Z,15.59
2017-06-17T04:37:19.017Z,15.63
2017-06-17T04:37:47.287Z,15.59
2017-06-17T04:38:15.552Z,15.65
2017-06-17T04:38:43.815Z,15.68
2017-06-17T04:39:12.076Z,15.68
2017-06-17T04:39:40.273Z,15.62
2017-06-17T04:40:08.355Z,15.66
2017-06-17T04:40:36.530Z,15.66
2017-06-17T04:41:47.751Z,15.7
2017-06-17T04:42:15.830Z,15.69
2017-06-17T04:42:43.825Z,15.65
2017-06-17T04:43:11.989Z,15.65
2017-06-17T04:43:40.166Z,15.59
2017-06-17T04:44:08.430Z,15.65
2017-06-17T04:44:36.510Z,15.59
2017-06-17T04:45:04.774Z,15.65
2017-06-17T04:45:33.068Z,15.63
2017-06-17T04:46:01.241Z,15.65
2017-06-17T04:46:29.507Z,15.56
2017-06-17T04:47:40.726Z,15.6
2017-06-17T04:48:08.903Z,15.56
2017-06-17T04:48:37.195Z,15.54
2017-06-17T04:49:05.455Z,15.51
2017-06-17T04:49:33.538Z,15.58
2017-06-17T04:50:01.712Z,15.56
2017-06-17T04:50:29.886Z,15.58
2017-06-17T04:50:58.049Z,15.56
2017-06-17T04:51:26.341Z,15.54
2017-06-17T04:51:54.612Z,15.59
2017-06-17T04:52:22.690Z,15.54
2017-06-17T04:53:34.003Z,15.54
2017-06-17T04:54:02.087Z,15.56
2017-06-17T04:54:30.375Z,15.56
2017-06-17T04:54:58.539Z,15.54
2017-06-17T04:55:26.715Z,15.56
2017-06-17T04:55:54.982Z,15.56
2017-06-17T04:56:23.256Z,15.56
2017-06-17T04:56:51.422Z,15.54
2017-06-17T04:57:19.716Z,15.54
2017-06-17T04:57:47.885Z,15.51
2017-06-17T04:58:16.153Z,15.58
2017-06-17T04:59:27.462Z,15.56
2017-06-17T04:59:55.634Z,15.59
2017-06-17T05:00:23.825Z,15.56
2017-06-17T05:00:51.903Z,15.52
2017-06-17T05:01:19.798Z,15.54
2017-06-17T05:01:48.065Z,15.56
2017-06-17T05:02:16.140Z,15.51
2017-06-17T05:02:44.403Z,15.47
2017-06-17T05:03:12.510Z,15.59
2017-06-17T05:03:40.687Z,15.47
2017-06-17T05:04:08.955Z,15.52
2017-06-17T05:05:20.272Z,15.5
2017-06-17T05:05:48.538Z,15.5
2017-06-17T05:06:16.730Z,15.47
2017-06-17T05:06:44.897Z,15.41
2017-06-17T05:07:12.789Z,15.45
2017-06-17T05:07:40.966Z,15.48
2017-06-17T05:08:09.141Z,15.47
2017-06-17T05:08:37.314Z,15.47
2017-06-17T05:09:05.513Z,15.47
2017-06-17T05:09:33.688Z,15.48
2017-06-17T05:10:01.956Z,15.52
2017-06-17T05:11:13.267Z,15.54
2017-06-17T05:11:41.438Z,15.47
2017-06-17T05:12:09.629Z,15.44
2017-06-17T05:12:37.703Z,15.43
2017-06-17T05:13:05.975Z,15.51
2017-06-17T05:13:34.238Z,15.47
2017-06-17T05:14:02.411Z,15.45
2017-06-17T05:14:30.580Z,15.44
2017-06-17T05:14:58.875Z,15.51
2017-06-17T05:15:27.055Z,15.54
2017-06-17T05:15:55.322Z,15.47
2017-06-17T05:17:06.447Z,15.48
2017-06-17T05:17:34.624Z,15.47
2017-06-17T05:18:02.909Z,15.47
2017-06-17T05:18:31.088Z,15.44
2017-06-17T05:18:59.271Z,15.48
2017-06-17T05:19:27.533Z,15.45
2017-06-17T05:19:55.610Z,15.48
2017-06-17T05:20:23.779Z,15.43
2017-06-17T05:20:51.979Z,15.47
2017-06-17T05:21:20.152Z,15.41
2017-06-17T05:21:48.329Z,15.45
2017-06-17T05:22:59.551Z,15.44
2017-06-17T05:23:27.724Z,15.45
2017-06-17T05:23:55.917Z,15.45
2017-06-17T05:24:24.180Z,15.36
2017-06-17T05:24:52.171Z,15.41
2017-06-17T05:25:20.342Z,15.43
2017-06-17T05:25:48.516Z,15.4
2017-06-17T05:26:16.783Z,15.36
2017-06-17T05:26:44.795Z,15.38
2017-06-17T05:27:13.061Z,15.3
2017-06-17T05:27:41.140Z,15.33
2017-06-17T05:28:52.454Z,15.29
2017-06-17T05:29:20.536Z,15.35
2017-06-17T05:29:48.821Z,15.35
2017-06-17T05:30:16.895Z,15.36
2017-06-17T05:30:45.072Z,15.32
2017-06-17T05:31:13.149Z,15.33
2017-06-17T05:31:41.415Z,15.3
2017-06-17T05:32:09.671Z,15.41
2017-06-17T05:32:37.868Z,15.3
2017-06-17T05:33:06.138Z,15.38
2017-06-17T05:33:34.406Z,15.38
2017-06-17T05:34:45.624Z,15.4
2017-06-17T05:35:13.893Z,15.38
2017-06-17T05:35:41.983Z,15.35
2017-06-17T05:36:10.147Z,15.27
2017-06-17T05:36:38.245Z,15.32
2017-06-17T05:37:06.413Z,15.33
2017-06-17T05:37:34.493Z,15.3
2017-06-17T05:38:02.657Z,15.36
2017-06-17T05:38:30.856Z,15.36
2017-06-17T05:38:59.034Z,15.26
2017-06-17T05:39:27.203Z,15.32
2017-06-17T05:40:38.518Z,15.33
2017-06-17T05:41:06.692Z,15.27
2017-06-17T05:41:34.887Z,15.35
2017-06-17T05:42:03.055Z,15.27
2017-06-17T05:42:31.141Z,15.29
2017-06-17T05:42:59.307Z,15.36
2017-06-17T05:43:27.573Z,15.3
2017-06-17T05:43:55.745Z,15.38
2017-06-17T05:44:24.038Z,15.32
2017-06-17T05:44:52.305Z,15.3
2017-06-17T05:45:20.484Z,15.33
2017-06-17T05:46:31.796Z,15.32
2017-06-17T05:46:59.878Z,15.25
2017-06-17T05:47:28.161Z,15.3
2017-06-17T05:47:56.423Z,15.25
2017-06-17T05:48:24.412Z,15.3
2017-06-17T05:48:52.491Z,15.25
2017-06-17T05:49:20.663Z,15.27
2017-06-17T05:49:48.832Z,15.25
2017-06-17T05:50:17.123Z,15.25
2017-06-17T05:50:45.394Z,15.35
2017-06-17T05:51:13.563Z,15.26
2017-06-17T05:52:24.883Z,15.22
2017-06-17T05:52:53.057Z,15.26
2017-06-17T05:53:21.261Z,15.26
2017-06-17T05:53:49.514Z,15.25
2017-06-17T05:54:17.692Z,15.29
2017-06-17T05:54:45.864Z,15.27
2017-06-17T05:55:14.033Z,15.26
2017-06-17T05:55:42.202Z,15.3
2017-06-17T05:56:10.494Z,15.25
2017-06-17T05:56:38.671Z,15.25
2017-06-17T05:57:06.945Z,15.3
2017-06-17T05:58:18.163Z,15.25
2017-06-17T05:58:46.238Z,15.23
2017-06-17T05:59:14.432Z,15.25
2017-06-17T05:59:42.694Z,15.22
2017-06-17T06:00:10.873Z,15.23
2017-06-17T06:00:39.138Z,15.27
2017-06-17T06:01:07.219Z,15.22
2017-06-17T06:01:35.485Z,15.29
2017-06-17T06:02:03.594Z,15.25
2017-06-17T06:02:31.774Z,15.22
2017-06-17T06:03:00.042Z,15.22
2017-06-17T06:04:11.356Z,15.23
2017-06-17T06:04:39.531Z,15.23
2017-06-17T06:05:07.728Z,15.2
2017-06-17T06:05:35.992Z,15.25
2017-06-17T06:06:04.266Z,15.19
2017-06-17T06:06:32.530Z,15.19
2017-06-17T06:07:00.705Z,15.25
2017-06-17T06:07:28.968Z,15.25
2017-06-17T06:07:57.260Z,15.2
2017-06-17T06:08:25.434Z,15.22
2017-06-17T06:08:53.607Z,15.23
2017-06-17T06:10:04.919Z,15.22
2017-06-17T06:10:32.997Z,15.17
2017-06-17T06:11:01.192Z,15.2
2017-06-17T06:11:29.356Z,15.14
2017-06-17T06:11:57.532Z,15.12
2017-06-17T06:12:25.796Z,15.1
2017-06-17T06:12:53.969Z,15.2
2017-06-17T06:13:22.042Z,15.17
2017-06-17T06:13:50.337Z,15.12
2017-06-17T06:14:18.426Z,15.15
2017-06-17T06:14:46.592Z,15.12
2017-06-17T06:15:57.812Z,15.08
2017-06-17T06:16:25.888Z,15.2
2017-06-17T06:16:54.170Z,15.08
2017-06-17T06:17:22.439Z,15.14
2017-06-17T06:17:50.617Z,15.14
2017-06-17T06:18:18.881Z,15.1
2017-06-17T06:18:47.146Z,15.11
2017-06-17T06:19:15.229Z,15.1
2017-06-17T06:19:43.333Z,15.15
2017-06-17T06:20:11.509Z,15.08
2017-06-17T06:20:39.685Z,15.05
2017-06-17T06:21:51.000Z,15.17
2017-06-17T06:22:19.079Z,15.1
2017-06-17T06:22:47.367Z,15.11
2017-06-17T06:23:15.531Z,15.11
2017-06-17T06:23:43.801Z,15.12
2017-06-17T06:24:12.067Z,15.01
2017-06-17T06:24:40.141Z,15.07
2017-06-17T06:25:08.316Z,15.12
2017-06-17T06:25:36.609Z,15.07
2017-06-17T06:26:04.885Z,15.1
2017-06-17T06:26:33.058Z,15.11
2017-06-17T06:27:44.373Z,14.97
2017-06-17T06:28:12.543Z,15.04
2017-06-17T06:28:40.635Z,15.1
2017-06-17T06:29:08.801Z,15.12
2017-06-17T06:29:36.886Z,15.08
2017-06-17T06:30:05.149Z,14.99
2017-06-17T06:30:33.317Z,15.1
2017-06-17T06:31:01.577Z,15.07
2017-06-17T06:31:29.775Z,15.05
2017-06-17T06:31:57.951Z,15.11
2017-06-17T06:32:26.123Z,15.1
2017-06-17T06:33:37.441Z,15.07
2017-06-17T06:34:05.617Z,15.12
2017-06-17T06:34:33.814Z,15.11
2017-06-17T06:35:01.981Z,15.1
2017-06-17T06:35:30.155Z,15.03
2017-06-17T06:35:58.322Z,15.08
2017-06-17T06:36:26.495Z,15.04
2017-06-17T06:36:54.757Z,15.11
2017-06-17T06:37:23.045Z,15.12
2017-06-17T06:37:51.219Z,15.04
2017-06-17T06:38:19.488Z,15.1
2017-06-17T06:39:30.799Z,15.07
2017-06-17T06:39:58.878Z,15.1
2017-06-17T06:40:27.160Z,15.04
2017-06-17T06:40:55.146Z,15.04
2017-06-17T06:41:23.416Z,15.1
2017-06-17T06:41:51.681Z,15.08
2017-06-17T06:42:19.759Z,15.01
2017-06-17T06:42:47.917Z,15.03
2017-06-17T06:43:16.120Z,15.03
2017-06-17T06:43:44.386Z,15.01
2017-06-17T06:44:12.460Z,15.07
2017-06-17T06:45:23.773Z,15.01
2017-06-17T06:45:51.855Z,15.08
2017-06-17T06:46:20.045Z,15.08
2017-06-17T06:46:48.121Z,15.04
2017-06-17T06:47:16.390Z,14.97
2017-06-17T06:47:44.559Z,15.07
2017-06-17T06:48:12.826Z,15.04
2017-06-17T06:48:40.892Z,14.97
2017-06-17T06:49:09.091Z,15.07
2017-06-17T06:49:37.362Z,15.05
2017-06-17T06:50:05.534Z,15.03
2017-06-17T06:51:16.758Z,15.03
2017-06-17T06:51:45.029Z,14.97
2017-06-17T06:52:13.311Z,15.05
2017-06-17T06:52:41.579Z,15.05
2017-06-17T06:53:09.570Z,15.03
2017-06-17T06:53:37.738Z,15.01
2017-06-17T06:54:05.723Z,15.01
2017-06-17T06:54:33.985Z,15.01